createdAt,value
2023-03-16T00:00:18.833Z,8.45
2023-03-16T00:02:51.891Z,8.45
2023-03-16T00:05:18.795Z,8.45
2023-03-16T00:07:49.006Z,8.50
2023-03-16T00:11:14.519Z,8.54
2023-03-16T00:13:56.527Z,8.46
2023-03-16T00:16:39.750Z,8.45
2023-03-16T00:22:27.159Z,8.43
2023-03-16T00:23:40.057Z,8.41
2023-03-16T00:25:02.957Z,8.44
2023-03-16T00:27:39.105Z,8.45
2023-03-16T00:33:45.327Z,8.55
2023-03-16T00:36:39.541Z,8.50
2023-03-16T00:39:15.886Z,8.51
2023-03-16T00:42:12.209Z,8.49
2023-03-16T00:44:40.436Z,8.40
2023-03-16T00:47:55.664Z,8.38
2023-03-16T00:50:39.081Z,8.38
2023-03-16T00:53:07.400Z,8.41
2023-03-16T00:55:43.149Z,8.45
2023-03-16T00:58:29.600Z,8.42
2023-03-16T01:01:07.201Z,8.47
2023-03-16T01:06:51.689Z,8.44
2023-03-16T01:09:41.248Z,8.44
2023-03-16T01:16:35.058Z,8.37
2023-03-16T01:19:17.190Z,8.32
2023-03-16T01:22:02.389Z,8.23
2023-03-16T01:24:54.578Z,8.13
2023-03-16T01:27:25.039Z,8.05
2023-03-16T01:29:59.956Z,8.04
2023-03-16T01:35:13.162Z,8.00
2023-03-16T01:37:57.078Z,7.94
2023-03-16T01:40:36.475Z,8.00
2023-03-16T01:43:07.093Z,7.98
2023-03-16T01:46:18.391Z,7.88
2023-03-16T01:49:18.782Z,7.73
2023-03-16T01:52:41.334Z,7.74
2023-03-16T01:58:17.655Z,7.70
2023-03-16T02:01:20.230Z,7.72
2023-03-16T02:03:40.215Z,7.77
2023-03-16T02:06:56.141Z,7.73
2023-03-16T02:09:44.610Z,7.68
2023-03-16T02:12:26.567Z,7.60
2023-03-16T02:18:04.327Z,7.52
2023-03-16T02:20:57.878Z,7.53
2023-03-16T02:23:26.618Z,7.53
2023-03-16T02:26:22.875Z,7.48
2023-03-16T02:29:26.361Z,7.41
2023-03-16T02:31:55.308Z,7.41
2023-03-16T02:34:24.409Z,7.47
2023-03-16T02:36:53.684Z,7.54
2023-03-16T02:39:21.102Z,7.56
2023-03-16T02:41:48.618Z,7.55
2023-03-16T02:44:26.094Z,7.61
2023-03-16T02:47:00.561Z,7.47
2023-03-16T02:49:35.233Z,7.40
2023-03-16T02:52:03.546Z,7.40
2023-03-16T02:54:31.372Z,7.38
2023-03-16T02:56:58.838Z,7.35
2023-03-16T02:59:26.388Z,7.35
2023-03-16T03:01:55.472Z,7.34
2023-03-16T03:04:24.032Z,7.28
2023-03-16T03:06:52.480Z,7.21
2023-03-16T03:09:21.935Z,7.21
2023-03-16T03:11:49.642Z,7.20
2023-03-16T03:14:17.273Z,7.14
2023-03-16T03:16:48.164Z,7.16
2023-03-16T03:19:16.230Z,7.12
2023-03-16T03:21:44.100Z,7.09
2023-03-16T03:24:26.347Z,7.09
2023-03-16T03:26:58.989Z,7.02
2023-03-16T03:29:34.710Z,7.03
2023-03-16T03:32:31.379Z,6.78
2023-03-16T03:34:59.530Z,6.75
2023-03-16T03:38:07.717Z,6.81
2023-03-16T03:40:44.710Z,6.70
2023-03-16T03:43:13.581Z,6.59
2023-03-16T03:45:43.503Z,6.60
2023-03-16T03:48:11.548Z,6.57
2023-03-16T03:50:41.487Z,6.63
2023-03-16T03:53:13.686Z,6.64
2023-03-16T03:55:41.207Z,6.41
2023-03-16T03:58:08.997Z,6.42
2023-03-16T04:00:36.004Z,6.41
2023-03-16T04:03:04.473Z,6.38
2023-03-16T04:05:32.373Z,6.30
2023-03-16T04:10:42.063Z,6.26
2023-03-16T04:13:10.318Z,6.29
2023-03-16T04:15:39.146Z,6.33
2023-03-16T04:18:08.503Z,6.31
2023-03-16T04:20:37.343Z,6.25
2023-03-16T04:23:05.308Z,6.17
2023-03-16T04:25:35.865Z,6.11
2023-03-16T04:28:02.918Z,6.10
2023-03-16T04:30:32.696Z,6.13
2023-03-16T04:33:03.251Z,6.17
2023-03-16T04:35:30.973Z,6.23
2023-03-16T04:37:59.474Z,6.23
2023-03-16T04:40:27.501Z,6.19
2023-03-16T04:42:55.250Z,6.19
2023-03-16T04:45:23.513Z,6.22
2023-03-16T04:47:54.219Z,6.23
2023-03-16T04:50:21.915Z,6.28
2023-03-16T04:52:49.378Z,6.19
2023-03-16T04:55:16.755Z,6.18
2023-03-16T04:57:44.372Z,6.04
2023-03-16T05:00:15.821Z,5.94
2023-03-16T05:02:43.243Z,5.85
2023-03-16T05:05:10.483Z,5.88
2023-03-16T05:07:37.371Z,5.87
2023-03-16T05:10:04.716Z,5.92
2023-03-16T05:12:35.871Z,5.84
2023-03-16T05:15:02.883Z,5.82
2023-03-16T05:17:29.716Z,5.77
2023-03-16T05:19:56.880Z,5.70
2023-03-16T05:22:24.046Z,5.75
2023-03-16T05:24:50.887Z,5.73
2023-03-16T05:27:59.841Z,5.70
2023-03-16T05:30:48.516Z,5.70
2023-03-16T05:33:17.398Z,5.51
2023-03-16T05:35:55.591Z,5.49
2023-03-16T05:38:29.249Z,5.39
2023-03-16T05:41:06.000Z,5.35
2023-03-16T05:43:34.415Z,5.47
2023-03-16T05:46:01.324Z,5.32
2023-03-16T05:48:29.059Z,5.33
2023-03-16T05:50:56.666Z,5.42
2023-03-16T05:53:33.768Z,5.42
2023-03-16T05:56:01.912Z,5.45
2023-03-16T05:58:35.945Z,5.46
2023-03-16T06:01:03.679Z,5.46
2023-03-16T06:03:32.004Z,5.42
2023-03-16T06:05:59.731Z,5.43
2023-03-16T06:08:27.036Z,5.29
2023-03-16T06:10:54.499Z,5.31
2023-03-16T06:13:27.734Z,5.29
2023-03-16T06:15:57.872Z,5.13
2023-03-16T06:18:27.901Z,5.00
2023-03-16T06:20:55.931Z,4.93
2023-03-16T06:23:23.373Z,4.97
2023-03-16T06:25:51.605Z,4.88
2023-03-16T06:28:19.311Z,4.88
2023-03-16T06:30:47.317Z,4.97
2023-03-16T06:33:14.984Z,4.97
2023-03-16T06:35:42.652Z,5.00
2023-03-16T06:38:15.786Z,5.08
2023-03-16T06:40:43.571Z,4.96
2023-03-16T06:43:11.351Z,4.88
2023-03-16T06:45:39.285Z,4.82
2023-03-16T06:48:07.352Z,4.60
2023-03-16T06:50:35.530Z,4.63
2023-03-16T06:53:03.004Z,4.58
2023-03-16T06:55:31.177Z,4.63
2023-03-16T06:57:59.617Z,4.55
2023-03-16T07:00:28.358Z,4.47
2023-03-16T07:02:59.510Z,4.44
2023-03-16T07:05:27.876Z,4.36
2023-03-16T07:07:55.217Z,4.38
2023-03-16T07:10:23.532Z,4.36
2023-03-16T07:12:58.190Z,4.34
2023-03-16T07:15:27.708Z,4.44
2023-03-16T07:18:09.659Z,4.35
2023-03-16T07:20:36.538Z,4.40
2023-03-16T07:23:03.843Z,4.42
2023-03-16T07:25:34.961Z,4.44
2023-03-16T07:28:01.997Z,4.49
2023-03-16T07:30:30.138Z,4.50
2023-03-16T07:32:58.385Z,4.51
2023-03-16T07:35:27.316Z,4.44
2023-03-16T07:37:57.645Z,4.45
2023-03-16T07:40:50.607Z,4.49
2023-03-16T07:43:17.531Z,4.56
2023-03-16T07:46:18.833Z,4.60
2023-03-16T07:48:54.456Z,4.67
2023-03-16T07:51:37.841Z,4.54
2023-03-16T07:54:10.174Z,4.60
2023-03-16T07:57:26.991Z,4.70
2023-03-16T08:01:28.555Z,4.69
2023-03-16T08:03:19.144Z,4.73
2023-03-16T08:05:47.525Z,4.78
2023-03-16T08:08:24.103Z,4.72
2023-03-16T08:11:15.262Z,4.58
2023-03-16T08:13:45.204Z,4.66
2023-03-16T08:16:13.430Z,4.57
2023-03-16T08:18:52.210Z,4.49
2023-03-16T08:21:24.685Z,4.42
2023-03-16T08:23:52.605Z,4.44
2023-03-16T08:26:33.646Z,4.53
2023-03-16T08:29:08.665Z,4.45
2023-03-16T08:31:43.808Z,4.49
2023-03-16T08:34:17.731Z,4.47
2023-03-16T08:36:46.052Z,4.41
2023-03-16T08:39:14.245Z,4.39
2023-03-16T08:41:46.350Z,4.33
2023-03-16T08:44:13.241Z,4.31
2023-03-16T08:46:41.154Z,4.46
2023-03-16T08:49:09.163Z,4.53
2023-03-16T08:51:36.742Z,4.49
2023-03-16T08:54:04.020Z,4.30
2023-03-16T08:56:31.311Z,4.29
2023-03-16T08:58:59.216Z,4.27
2023-03-16T09:01:28.220Z,4.32
2023-03-16T09:03:56.444Z,4.39
2023-03-16T09:06:27.166Z,4.39
2023-03-16T09:08:54.196Z,4.43
2023-03-16T09:11:22.323Z,4.37
2023-03-16T09:13:53.186Z,4.39
2023-03-16T09:16:21.530Z,4.40
2023-03-16T09:18:49.829Z,4.53
2023-03-16T09:21:31.521Z,4.63
2023-03-16T09:23:59.304Z,4.49
2023-03-16T09:26:26.990Z,4.46
2023-03-16T09:28:55.485Z,4.50
2023-03-16T09:31:28.174Z,4.60
2023-03-16T09:33:55.821Z,4.57
2023-03-16T09:36:23.619Z,4.59
2023-03-16T09:38:50.705Z,4.68
2023-03-16T09:41:51.678Z,4.81
2023-03-16T09:44:29.494Z,4.69
2023-03-16T09:47:01.163Z,4.72
2023-03-16T09:49:36.847Z,4.70
2023-03-16T09:52:35.278Z,4.75
2023-03-16T09:55:28.357Z,4.60
2023-03-16T09:57:59.075Z,4.51
2023-03-16T10:00:38.082Z,4.50
2023-03-16T10:03:37.045Z,4.46
2023-03-16T10:06:10.578Z,4.39
2023-03-16T10:08:42.389Z,4.44
2023-03-16T10:11:21.656Z,4.52
2023-03-16T10:13:59.103Z,4.51
2023-03-16T10:16:48.002Z,4.56
2023-03-16T10:19:34.753Z,4.49
2023-03-16T10:22:14.306Z,4.47
2023-03-16T10:24:55.123Z,4.45
2023-03-16T10:27:35.036Z,4.52
2023-03-16T10:30:03.991Z,4.64
2023-03-16T10:32:34.715Z,4.73
2023-03-16T10:35:28.346Z,4.83
2023-03-16T10:37:57.070Z,4.79
2023-03-16T10:40:31.814Z,4.85
2023-03-16T10:43:23.560Z,4.88
2023-03-16T10:45:51.247Z,4.93
2023-03-16T10:48:21.894Z,4.89
2023-03-16T10:50:57.443Z,4.74
2023-03-16T10:53:32.137Z,4.78
2023-03-16T10:56:02.546Z,4.87
2023-03-16T10:58:33.949Z,4.71
2023-03-16T11:01:02.513Z,4.58
2023-03-16T11:03:37.097Z,4.63
2023-03-16T11:06:07.918Z,4.77
2023-03-16T11:08:42.265Z,4.91
2023-03-16T11:11:32.912Z,4.90
2023-03-16T11:14:12.007Z,4.83
2023-03-16T11:17:06.359Z,4.74
2023-03-16T11:19:40.276Z,4.79
2023-03-16T11:22:10.822Z,4.89
2023-03-16T11:25:11.026Z,4.73
2023-03-16T11:27:52.118Z,4.75
2023-03-16T11:30:36.124Z,4.76
2023-03-16T11:33:10.810Z,4.71
2023-03-16T11:35:58.132Z,4.69
2023-03-16T11:38:52.886Z,4.78
2023-03-16T11:41:53.764Z,4.78
2023-03-16T11:44:40.222Z,4.66
2023-03-16T11:47:56.162Z,4.56
2023-03-16T11:51:16.868Z,4.58
2023-03-16T11:53:57.802Z,4.56
2023-03-16T11:56:42.878Z,4.65
2023-03-16T11:59:30.856Z,4.67
2023-03-16T12:02:15.914Z,4.70
2023-03-16T12:05:30.678Z,4.57
2023-03-16T12:08:28.137Z,4.50
2023-03-16T12:11:10.347Z,4.64
2023-03-16T12:13:42.147Z,4.68
2023-03-16T12:16:48.269Z,4.69
2023-03-16T12:19:39.734Z,4.64
2023-03-16T12:22:46.601Z,4.41
2023-03-16T12:25:34.121Z,4.46
2023-03-16T12:28:08.183Z,4.57
2023-03-16T12:31:25.846Z,4.46
2023-03-16T12:34:28.304Z,4.46
2023-03-16T12:37:14.512Z,4.56
2023-03-16T12:40:00.412Z,4.70
2023-03-16T12:42:43.929Z,4.78
2023-03-16T12:45:28.791Z,4.84
2023-03-16T12:48:23.500Z,4.80
2023-03-16T12:50:55.927Z,4.67
2023-03-16T12:53:53.677Z,4.76
2023-03-16T12:56:45.798Z,4.73
2023-03-16T12:59:26.964Z,4.73
2023-03-16T13:02:02.871Z,4.66
2023-03-16T13:04:34.794Z,4.55
2023-03-16T13:07:37.380Z,4.48
2023-03-16T13:10:20.055Z,4.40
2023-03-16T13:13:09.383Z,4.44
2023-03-16T13:15:41.620Z,4.29
2023-03-16T13:18:20.183Z,4.32
2023-03-16T13:21:00.104Z,4.34
2023-03-16T13:23:54.901Z,4.33
2023-03-16T13:26:48.057Z,4.36
2023-03-16T13:29:27.203Z,4.44
2023-03-16T13:32:01.059Z,4.43
2023-03-16T13:34:47.008Z,4.50
2023-03-16T13:37:18.936Z,4.52
2023-03-16T13:39:57.723Z,4.56
2023-03-16T13:42:28.128Z,4.62
2023-03-16T13:44:58.104Z,4.64
2023-03-16T13:47:29.248Z,4.67
2023-03-16T13:49:59.088Z,4.75
2023-03-16T13:52:30.612Z,4.82
2023-03-16T13:55:00.043Z,4.88
2023-03-16T13:57:37.459Z,4.97
2023-03-16T14:00:18.607Z,4.91
2023-03-16T14:02:47.851Z,4.89
2023-03-16T14:05:21.796Z,4.96
2023-03-16T14:07:52.008Z,5.07
2023-03-16T14:10:21.325Z,5.10
2023-03-16T14:12:52.939Z,4.83
2023-03-16T14:15:21.211Z,4.77
2023-03-16T14:17:49.391Z,4.81
2023-03-16T14:20:26.520Z,4.74
2023-03-16T14:22:59.607Z,4.73
2023-03-16T14:25:29.387Z,4.77
2023-03-16T14:28:03.992Z,4.78
2023-03-16T14:30:31.990Z,4.73
2023-03-16T14:33:07.198Z,4.70
2023-03-16T14:35:43.125Z,4.52
2023-03-16T14:38:29.173Z,4.53
2023-03-16T14:41:05.777Z,4.42
2023-03-16T14:43:39.856Z,4.38
2023-03-16T14:46:08.904Z,4.37
2023-03-16T14:48:37.082Z,4.44
2023-03-16T14:51:05.165Z,4.51
2023-03-16T14:53:32.711Z,4.63
2023-03-16T14:56:00.552Z,4.55
2023-03-16T14:58:28.040Z,4.62
2023-03-16T15:00:55.813Z,4.65
2023-03-16T15:03:29.564Z,4.66
2023-03-16T15:05:57.599Z,4.60
2023-03-16T15:08:29.537Z,4.59
2023-03-16T15:11:10.112Z,4.55
2023-03-16T15:13:40.650Z,4.53
2023-03-16T15:16:12.315Z,4.58
2023-03-16T15:18:40.971Z,4.38
2023-03-16T15:21:24.680Z,4.39
2023-03-16T15:23:53.224Z,4.34
2023-03-16T15:26:27.595Z,4.26
2023-03-16T15:28:58.843Z,4.22
2023-03-16T15:31:26.971Z,4.29
2023-03-16T15:33:54.147Z,4.34
2023-03-16T15:36:24.526Z,4.32
2023-03-16T15:38:54.434Z,4.35
2023-03-16T15:41:23.649Z,4.33
2023-03-16T15:43:52.866Z,4.36
2023-03-16T15:46:21.967Z,4.38
2023-03-16T15:49:10.802Z,4.38
2023-03-16T15:53:10.182Z,4.38
2023-03-16T15:55:47.021Z,4.27
2023-03-16T15:58:21.880Z,4.28
2023-03-16T16:01:04.941Z,4.29
2023-03-16T16:03:32.393Z,4.22
2023-03-16T16:05:59.716Z,4.21
2023-03-16T16:08:27.048Z,4.18
2023-03-16T16:10:58.706Z,4.16
2023-03-16T16:13:37.518Z,4.08
2023-03-16T16:16:15.143Z,4.11
2023-03-16T16:18:43.658Z,4.10
2023-03-16T16:21:25.530Z,4.08
2023-03-16T16:24:04.010Z,4.10
2023-03-16T16:26:49.842Z,4.03
2023-03-16T16:29:24.074Z,4.03
2023-03-16T16:31:52.470Z,3.96
2023-03-16T16:34:25.427Z,4.00
2023-03-16T16:36:57.697Z,3.93
2023-03-16T16:39:26.015Z,3.94
2023-03-16T16:41:58.575Z,4.00
2023-03-16T16:44:35.758Z,3.98
2023-03-16T16:47:06.872Z,3.98
2023-03-16T16:49:35.347Z,4.00
2023-03-16T16:52:04.693Z,3.98
2023-03-16T16:54:33.225Z,3.98
2023-03-16T16:57:04.415Z,4.05
2023-03-16T16:59:42.500Z,3.99
2023-03-16T17:02:32.563Z,3.96
2023-03-16T17:05:04.956Z,3.95
2023-03-16T17:07:33.203Z,3.94
2023-03-16T17:10:00.185Z,3.90
2023-03-16T17:12:30.278Z,3.89
2023-03-16T17:15:00.860Z,3.92
2023-03-16T17:17:31.112Z,3.87
2023-03-16T17:20:02.438Z,3.92
2023-03-16T17:22:32.105Z,3.87
2023-03-16T17:24:59.849Z,3.81
2023-03-16T17:27:32.660Z,3.86
2023-03-16T17:30:01.307Z,3.92
2023-03-16T17:32:29.054Z,3.91
2023-03-16T17:35:00.898Z,4.01
2023-03-16T17:37:32.045Z,4.10
2023-03-16T17:40:02.450Z,3.85
2023-03-16T17:42:32.844Z,3.76
2023-03-16T17:45:29.495Z,3.81
2023-03-16T17:48:00.298Z,3.75
2023-03-16T17:50:30.225Z,3.79
2023-03-16T17:53:01.822Z,3.79
2023-03-16T17:55:29.262Z,3.77
2023-03-16T17:57:56.937Z,3.79
2023-03-16T18:00:32.642Z,3.78
2023-03-16T18:03:15.578Z,3.74
2023-03-16T18:05:44.810Z,3.68
2023-03-16T18:08:29.902Z,3.66
2023-03-16T18:11:01.460Z,3.60
2023-03-16T18:13:35.540Z,3.66
2023-03-16T18:16:06.516Z,3.69
2023-03-16T18:18:43.197Z,3.74
2023-03-16T18:21:23.872Z,3.82
2023-03-16T18:23:51.784Z,3.83
2023-03-16T18:26:19.987Z,3.87
2023-03-16T18:28:47.489Z,3.93
2023-03-16T18:31:22.372Z,3.87
2023-03-16T18:34:09.404Z,3.84
2023-03-16T18:36:38.450Z,3.79
2023-03-16T18:39:27.832Z,3.74
2023-03-16T18:41:55.180Z,3.63
2023-03-16T18:44:30.717Z,3.67
2023-03-16T18:47:02.993Z,3.63
2023-03-16T18:49:37.638Z,3.64
2023-03-16T18:52:16.172Z,3.54
2023-03-16T18:54:46.361Z,3.44
2023-03-16T18:57:22.719Z,3.38
2023-03-16T18:59:52.117Z,3.29
2023-03-16T19:02:41.756Z,3.28
2023-03-16T19:05:38.944Z,3.24
2023-03-16T19:08:07.103Z,3.22
2023-03-16T19:10:39.207Z,3.23
2023-03-16T19:13:17.556Z,3.30
2023-03-16T19:15:45.073Z,3.24
2023-03-16T19:18:13.242Z,3.28
2023-03-16T19:20:44.549Z,3.38
2023-03-16T19:23:24.822Z,3.42
2023-03-16T19:25:52.985Z,3.48
2023-03-16T19:28:34.315Z,3.53
2023-03-16T19:31:21.384Z,3.58
2023-03-16T19:33:49.909Z,3.64
2023-03-16T19:36:30.790Z,3.66
2023-03-16T19:38:59.769Z,3.69
2023-03-16T19:41:34.166Z,3.73
2023-03-16T19:44:13.442Z,3.74
2023-03-16T19:46:41.915Z,3.68
2023-03-16T19:49:21.220Z,3.63
2023-03-16T19:51:52.039Z,3.71
2023-03-16T19:54:28.516Z,3.69
2023-03-16T19:56:58.853Z,3.72
2023-03-16T19:59:31.834Z,3.67
2023-03-16T20:02:00.156Z,3.65
2023-03-16T20:04:31.739Z,3.64
2023-03-16T20:06:59.600Z,3.71
2023-03-16T20:09:27.933Z,3.74
2023-03-16T20:11:55.292Z,3.77
2023-03-16T20:14:32.790Z,3.79
2023-03-16T20:17:04.708Z,3.80
2023-03-16T20:19:37.497Z,3.78
2023-03-16T20:22:18.012Z,3.84
2023-03-16T20:24:47.249Z,3.74
2023-03-16T20:27:16.402Z,3.69
2023-03-16T20:29:50.040Z,3.69
2023-03-16T20:32:34.717Z,3.66
2023-03-16T20:35:02.682Z,3.67
2023-03-16T20:37:31.842Z,3.70
2023-03-16T20:39:59.548Z,3.71
2023-03-16T20:42:31.995Z,3.65
2023-03-16T20:45:00.209Z,3.67
2023-03-16T20:47:28.247Z,3.72
2023-03-16T20:49:57.648Z,3.67
2023-03-16T20:52:30.611Z,3.56
2023-03-16T20:55:02.560Z,3.50
2023-03-16T20:57:31.535Z,3.49
2023-03-16T21:00:00.205Z,3.43
2023-03-16T21:02:36.892Z,3.44
2023-03-16T21:05:07.499Z,3.42
2023-03-16T21:07:35.491Z,3.42
2023-03-16T21:10:03.325Z,3.34
2023-03-16T21:12:37.636Z,3.29
2023-03-16T21:15:37.409Z,3.34
2023-03-16T21:18:08.727Z,3.34
2023-03-16T21:20:36.781Z,3.34
2023-03-16T21:23:04.143Z,3.38
2023-03-16T21:25:34.836Z,3.36
2023-03-16T21:28:05.558Z,3.32
2023-03-16T21:30:43.534Z,3.36
2023-03-16T21:33:19.256Z,3.28
2023-03-16T21:35:46.544Z,3.32
2023-03-16T21:38:19.359Z,3.33
2023-03-16T21:40:47.280Z,3.32
2023-03-16T21:43:15.913Z,3.32
2023-03-16T21:45:43.051Z,3.38
2023-03-16T21:48:30.260Z,3.48
2023-03-16T21:50:57.232Z,3.49
2023-03-16T21:53:27.412Z,3.49
2023-03-16T21:55:55.425Z,3.49
2023-03-16T21:58:23.861Z,3.54
2023-03-16T22:00:53.594Z,3.51
2023-03-16T22:03:26.047Z,3.45
2023-03-16T22:05:54.835Z,3.50
2023-03-16T22:08:34.952Z,3.56
2023-03-16T22:11:09.560Z,3.58
2023-03-16T22:13:47.408Z,3.57
2023-03-16T22:16:21.129Z,3.58
2023-03-16T22:18:51.111Z,3.60
2023-03-16T22:21:21.757Z,3.61
2023-03-16T22:23:58.585Z,3.62
2023-03-16T22:26:27.295Z,3.69
2023-03-16T22:28:56.974Z,3.73
2023-03-16T22:31:39.852Z,3.66
2023-03-16T22:34:27.497Z,3.63
2023-03-16T22:36:56.451Z,3.69
2023-03-16T22:39:24.173Z,3.66
2023-03-16T22:42:01.513Z,3.56
2023-03-16T22:44:31.810Z,3.47
2023-03-16T22:46:59.840Z,3.47
2023-03-16T22:49:31.505Z,3.55
2023-03-16T22:52:07.976Z,3.59
2023-03-16T22:54:35.856Z,3.55
2023-03-16T22:57:11.241Z,3.57
2023-03-16T22:59:38.783Z,3.55
2023-03-16T23:02:07.647Z,3.46
2023-03-16T23:04:36.035Z,3.47
2023-03-16T23:07:04.226Z,3.43
2023-03-16T23:09:33.068Z,3.42
2023-03-16T23:12:04.332Z,3.44
2023-03-16T23:14:36.127Z,3.49
2023-03-16T23:17:04.632Z,3.51
2023-03-16T23:19:38.386Z,3.43
2023-03-16T23:22:08.508Z,3.39
2023-03-16T23:24:36.971Z,3.43
2023-03-16T23:27:06.262Z,3.44
2023-03-16T23:29:37.312Z,3.44
2023-03-16T23:32:05.859Z,3.48
2023-03-16T23:34:33.667Z,3.44
2023-03-16T23:37:01.693Z,3.45
2023-03-16T23:39:37.656Z,3.38
2023-03-16T23:42:05.982Z,3.38
2023-03-16T23:44:33.545Z,3.38
2023-03-16T23:47:03.842Z,3.39
2023-03-16T23:49:37.495Z,3.37
2023-03-16T23:52:06.414Z,3.26
2023-03-16T23:54:34.614Z,3.24
2023-03-16T23:57:06.548Z,3.27
2023-03-16T23:59:34.011Z,3.20
